createdAt,value
2017-12-26T00:00:46.425Z,100300.23
2017-12-26T00:03:14.761Z,100290.83
2017-12-26T00:05:43.071Z,100285.18
2017-12-26T00:08:11.421Z,100276.46
2017-12-26T00:10:39.711Z,100274.75
2017-12-26T00:13:08.021Z,100262.14
2017-12-26T00:15:36.333Z,100254.43
2017-12-26T00:18:04.726Z,100263.84
2017-12-26T00:20:33.027Z,100254.80
2017-12-26T00:23:01.600Z,100232.80
2017-12-26T00:25:29.905Z,100211.66
2017-12-26T00:27:58.217Z,100217.69
2017-12-26T00:30:26.524Z,100206.31
2017-12-26T00:32:54.829Z,100215.12
2017-12-26T00:35:23.131Z,100199.42
2017-12-26T00:37:51.439Z,100191.06
2017-12-26T00:40:19.747Z,100188.64
2017-12-26T00:42:48.056Z,100172.97
2017-12-26T00:45:16.362Z,100177.58
2017-12-26T00:47:45.440Z,100158.34
2017-12-26T00:50:13.777Z,100152.86
2017-12-26T00:52:42.095Z,100155.55
2017-12-26T00:55:10.415Z,100151.86
2017-12-26T00:57:39.472Z,100128.33
2017-12-26T01:00:08.436Z,100118.55
2017-12-26T01:02:36.737Z,100120.52
2017-12-26T01:05:05.029Z,100097.80
2017-12-26T01:07:33.334Z,100101.36
2017-12-26T01:10:02.407Z,100093.31
2017-12-26T01:12:30.716Z,100085.69
2017-12-26T01:14:59.039Z,100084.77
2017-12-26T01:17:27.341Z,100068.77
2017-12-26T01:19:55.644Z,100058.27
2017-12-26T01:22:23.946Z,100062.62
2017-12-26T01:24:52.319Z,100060.34
2017-12-26T01:27:20.615Z,100050.66
2017-12-26T01:29:49.687Z,100047.60
2017-12-26T01:32:17.984Z,100045.05
2017-12-26T01:34:46.320Z,100043.31
2017-12-26T01:37:15.393Z,100036.69
2017-12-26T01:39:44.455Z,100019.27
2017-12-26T01:42:12.751Z,100031.61
2017-12-26T01:44:41.070Z,100033.44
2017-12-26T01:47:09.363Z,100010.41
2017-12-26T01:49:38.279Z,100005.80
2017-12-26T01:52:06.575Z,99994.98
2017-12-26T01:54:34.878Z,99985.59
2017-12-26T01:57:03.956Z,99987.41
2017-12-26T01:59:32.260Z,100006.69
2017-12-26T02:02:01.316Z,100007.60
2017-12-26T02:04:29.622Z,100010.66
2017-12-26T02:06:57.920Z,100012.62
2017-12-26T02:09:27.078Z,100009.05
2017-12-26T02:11:55.378Z,100015.86
2017-12-26T02:14:23.678Z,99995.45
2017-12-26T02:16:51.978Z,99991.04
2017-12-26T02:19:20.259Z,99966.31
2017-12-26T02:21:49.317Z,99963.28
2017-12-26T02:24:17.608Z,99953.45
2017-12-26T02:26:45.900Z,99945.34
2017-12-26T02:29:14.209Z,99933.52
2017-12-26T02:31:42.550Z,99929.10
2017-12-26T02:34:10.883Z,99917.66
2017-12-26T02:36:39.175Z,99908.23
2017-12-26T02:39:07.482Z,99903.27
2017-12-26T02:41:35.805Z,99889.50
2017-12-26T02:44:04.132Z,99887.66
2017-12-26T02:46:32.420Z,99865.04
2017-12-26T02:49:00.825Z,99852.19
2017-12-26T02:51:29.152Z,99841.57
2017-12-26T02:53:57.460Z,99840.44
2017-12-26T02:56:25.773Z,99824.88
2017-12-26T02:58:54.082Z,99809.95
2017-12-26T03:01:23.172Z,99787.31
2017-12-26T03:03:52.224Z,99799.84
2017-12-26T03:06:20.529Z,99796.45
2017-12-26T03:08:49.682Z,99797.89
2017-12-26T03:11:17.987Z,99794.87
2017-12-26T03:13:46.330Z,99788.75
2017-12-26T03:16:14.626Z,99774.33
2017-12-26T03:18:42.914Z,99788.19
2017-12-26T03:21:11.207Z,99796.16
2017-12-26T03:23:39.540Z,99792.81
2017-12-26T03:26:08.600Z,99774.91
2017-12-26T03:28:36.888Z,99786.82
2017-12-26T03:31:05.216Z,99764.97
2017-12-26T03:33:33.516Z,99754.31
2017-12-26T03:36:01.868Z,99763.06
2017-12-26T03:38:30.168Z,99734.06
2017-12-26T03:40:58.485Z,99739.38
2017-12-26T03:43:26.798Z,99730.73
2017-12-26T03:45:55.108Z,99708.73
2017-12-26T03:48:23.423Z,99704.88
2017-12-26T03:50:51.748Z,99700.09
2017-12-26T03:53:20.847Z,99703.27
2017-12-26T03:55:49.905Z,99694.84
2017-12-26T03:58:18.196Z,99676.28
2017-12-26T04:00:46.504Z,99683.63
2017-12-26T04:03:14.807Z,99670.40
2017-12-26T04:05:43.892Z,99668.88
2017-12-26T04:08:12.955Z,99662.14
2017-12-26T04:10:42.844Z,99663.89
2017-12-26T04:13:11.140Z,99650.97
2017-12-26T04:15:39.442Z,99648.84
2017-12-26T04:18:07.758Z,99633.23
2017-12-26T04:20:36.830Z,99618.45
2017-12-26T04:23:05.222Z,99612.05
2017-12-26T04:25:33.529Z,99612.33
2017-12-26T04:28:01.850Z,99608.47
2017-12-26T04:30:30.162Z,99592.76
2017-12-26T04:32:58.475Z,99592.77
2017-12-26T04:35:26.806Z,99599.48
2017-12-26T04:37:55.130Z,99596.39
2017-12-26T04:40:23.526Z,99588.34
2017-12-26T04:42:51.844Z,99600.05
2017-12-26T04:45:20.160Z,99590.05
2017-12-26T04:47:48.468Z,99568.89
2017-12-26T04:50:16.778Z,99570.52
2017-12-26T04:52:45.152Z,99580.00
2017-12-26T04:55:13.531Z,99580.98
2017-12-26T04:57:41.810Z,99592.14
2017-12-26T05:00:10.114Z,99602.77
2017-12-26T05:02:39.183Z,99607.45
2017-12-26T05:05:07.484Z,99602.97
2017-12-26T05:07:35.837Z,99607.45
2017-12-26T05:10:04.144Z,99627.59
2017-12-26T05:12:32.456Z,99623.71
2017-12-26T05:15:00.767Z,99611.80
2017-12-26T05:17:29.829Z,99608.53
2017-12-26T05:19:58.141Z,99627.02
2017-12-26T05:22:27.226Z,99635.59
2017-12-26T05:24:55.543Z,99643.23
2017-12-26T05:27:23.862Z,99655.07
2017-12-26T05:29:52.159Z,99646.80
2017-12-26T05:32:20.466Z,99663.43
2017-12-26T05:34:49.515Z,99661.28
2017-12-26T05:37:17.815Z,99699.52
2017-12-26T05:39:46.130Z,99666.48
2017-12-26T05:42:15.190Z,99677.09
2017-12-26T05:44:43.491Z,99680.05
2017-12-26T05:47:12.303Z,99687.59
2017-12-26T05:49:41.365Z,99705.34
2017-12-26T05:52:09.674Z,99685.55
2017-12-26T05:54:38.802Z,99688.00
2017-12-26T05:57:07.116Z,99689.33
2017-12-26T05:59:35.403Z,99699.23
2017-12-26T06:02:03.696Z,99701.37
2017-12-26T06:04:32.085Z,99708.91
2017-12-26T06:07:00.386Z,99706.36
2017-12-26T06:09:28.695Z,99712.37
2017-12-26T06:11:57.013Z,99710.33
2017-12-26T06:14:25.347Z,99727.56
2017-12-26T06:16:54.411Z,99725.63
2017-12-26T06:19:22.701Z,99713.18
2017-12-26T06:21:51.001Z,99711.04
2017-12-26T06:24:20.062Z,99717.56
2017-12-26T06:26:48.376Z,99721.86
2017-12-26T06:29:17.602Z,99732.16
2017-12-26T06:31:46.549Z,99726.04
2017-12-26T06:34:15.076Z,99726.25
2017-12-26T06:36:44.163Z,99729.81
2017-12-26T06:39:13.283Z,99736.45
2017-12-26T06:41:41.613Z,99732.37
2017-12-26T06:44:09.941Z,99734.92
2017-12-26T06:46:38.256Z,99735.03
2017-12-26T06:49:06.624Z,99742.98
2017-12-26T06:51:34.944Z,99744.08
2017-12-26T06:54:03.260Z,99745.81
2017-12-26T06:56:34.170Z,99758.59
2017-12-26T06:59:02.533Z,99751.66
2017-12-26T07:01:30.857Z,99749.92
2017-12-26T07:03:59.192Z,99753.58
2017-12-26T07:06:27.744Z,99757.14
2017-12-26T07:08:56.099Z,99744.89
2017-12-26T07:11:25.261Z,99759.89
2017-12-26T07:13:53.619Z,99756.95
2017-12-26T07:16:21.931Z,99749.98
2017-12-26T07:18:50.262Z,99760.70
2017-12-26T07:21:24.937Z,99758.36
2017-12-26T07:23:53.314Z,99763.98
2017-12-26T07:26:21.647Z,99769.91
2017-12-26T07:28:50.808Z,99770.32
2017-12-26T07:31:19.337Z,99772.14
2017-12-26T07:33:48.439Z,99773.77
2017-12-26T07:36:18.316Z,99780.30
2017-12-26T07:38:52.175Z,99791.84
2017-12-26T07:41:20.512Z,99800.63
2017-12-26T07:43:48.815Z,99805.52
2017-12-26T07:46:17.144Z,99796.12
2017-12-26T07:48:45.477Z,99802.13
2017-12-26T07:51:13.789Z,99807.31
2017-12-26T07:53:42.091Z,99798.44
2017-12-26T07:56:10.421Z,99808.92
2017-12-26T07:58:38.724Z,99807.91
2017-12-26T08:01:08.353Z,99813.02
2017-12-26T08:03:36.685Z,99824.13
2017-12-26T08:06:05.004Z,99827.80
2017-12-26T08:08:33.449Z,99827.69
2017-12-26T08:11:01.764Z,99839.61
2017-12-26T08:13:30.955Z,99827.27
2017-12-26T08:16:00.068Z,99819.31
2017-12-26T08:18:29.170Z,99831.62
2017-12-26T08:20:57.518Z,99834.97
2017-12-26T08:23:25.821Z,99842.86
2017-12-26T08:25:54.181Z,99855.00
2017-12-26T08:28:23.088Z,99845.10
2017-12-26T08:30:52.209Z,99855.39
2017-12-26T08:33:20.530Z,99850.38
2017-12-26T08:35:48.837Z,99849.25
2017-12-26T08:38:17.148Z,99861.80
2017-12-26T08:40:46.233Z,99860.91
2017-12-26T08:43:14.579Z,99859.27
2017-12-26T08:45:42.866Z,99859.59
2017-12-26T08:48:11.171Z,99864.37
2017-12-26T08:50:39.471Z,99862.55
2017-12-26T08:53:08.535Z,99855.20
2017-12-26T08:55:36.859Z,99856.02
2017-12-26T08:58:05.919Z,99859.68
2017-12-26T09:00:34.217Z,99861.92
2017-12-26T09:03:03.169Z,99869.17
2017-12-26T09:05:31.449Z,99877.72
2017-12-26T09:07:59.765Z,99878.59
2017-12-26T09:10:28.069Z,99870.69
2017-12-26T09:12:57.144Z,99877.23
2017-12-26T09:15:25.435Z,99875.11
2017-12-26T09:17:54.534Z,99886.30
2017-12-26T09:20:22.826Z,99889.58
2017-12-26T09:22:51.881Z,99897.34
2017-12-26T09:25:20.171Z,99905.30
2017-12-26T09:27:48.457Z,99907.06
2017-12-26T09:30:16.753Z,99909.00
2017-12-26T09:32:45.066Z,99912.69
2017-12-26T09:35:13.363Z,99910.26
2017-12-26T09:37:41.709Z,99913.77
2017-12-26T09:40:10.784Z,99912.61
2017-12-26T09:42:39.087Z,99916.31
2017-12-26T09:45:08.129Z,99914.36
2017-12-26T09:47:37.415Z,99914.44
2017-12-26T09:50:05.699Z,99922.15
2017-12-26T09:52:33.995Z,99914.59
2017-12-26T09:55:02.309Z,99919.38
2017-12-26T09:57:30.646Z,99927.78
2017-12-26T09:59:58.960Z,99931.45
2017-12-26T10:02:27.272Z,99924.11
2017-12-26T10:04:55.689Z,99919.34
2017-12-26T10:07:23.978Z,99921.70
2017-12-26T10:09:52.370Z,99921.09
2017-12-26T10:12:20.648Z,99922.41
2017-12-26T10:14:48.925Z,99920.69
2017-12-26T10:17:17.223Z,99923.13
2017-12-26T10:19:45.503Z,99921.93
2017-12-26T10:22:13.776Z,99916.42
2017-12-26T10:24:42.091Z,99919.79
2017-12-26T10:27:10.458Z,99920.11
2017-12-26T10:29:38.791Z,99923.95
2017-12-26T10:32:07.849Z,99921.64
2017-12-26T10:34:36.222Z,99930.77
2017-12-26T10:37:04.540Z,99925.08
2017-12-26T10:39:33.608Z,99922.10
2017-12-26T10:42:01.912Z,99923.13
2017-12-26T10:44:31.445Z,99928.20
2017-12-26T10:47:00.531Z,99938.38
2017-12-26T10:49:29.586Z,99935.72
2017-12-26T10:51:57.886Z,99928.29
2017-12-26T10:54:26.181Z,99932.14
2017-12-26T10:56:54.495Z,99929.48
2017-12-26T10:59:23.618Z,99922.58
2017-12-26T11:01:51.921Z,99935.55
2017-12-26T11:04:20.225Z,99935.61
2017-12-26T11:06:49.291Z,99929.80
2017-12-26T11:09:17.605Z,99944.64
2017-12-26T11:11:45.902Z,99942.88
2017-12-26T11:14:14.991Z,99944.62
2017-12-26T11:16:43.281Z,99946.25
2017-12-26T11:19:12.334Z,99948.70
2017-12-26T11:21:41.850Z,99941.23
2017-12-26T11:24:10.189Z,99950.00
2017-12-26T11:26:38.504Z,99949.48
2017-12-26T11:29:06.795Z,99930.18
2017-12-26T11:31:35.083Z,99938.33
2017-12-26T11:34:03.373Z,99940.78
2017-12-26T11:36:31.670Z,99942.73
2017-12-26T11:39:00.752Z,99932.05
2017-12-26T11:41:29.047Z,99940.23
2017-12-26T11:43:57.443Z,99946.34
2017-12-26T11:46:26.197Z,99947.78
2017-12-26T11:48:54.483Z,99950.61
2017-12-26T11:51:22.813Z,99940.13
2017-12-26T11:53:51.889Z,99934.51
2017-12-26T11:56:21.777Z,99950.33
2017-12-26T11:58:50.077Z,99942.83
2017-12-26T12:01:18.361Z,99938.52
2017-12-26T12:03:46.673Z,99949.32
2017-12-26T12:06:15.096Z,99959.09
2017-12-26T12:08:43.387Z,99950.95
2017-12-26T12:11:11.682Z,99945.13
2017-12-26T12:13:40.026Z,99933.44
2017-12-26T12:16:08.336Z,99937.27
2017-12-26T12:18:36.977Z,99938.77
2017-12-26T12:21:05.280Z,99939.38
2017-12-26T12:23:33.595Z,99935.86
2017-12-26T12:26:02.696Z,99936.02
2017-12-26T12:28:31.008Z,99938.58
2017-12-26T12:31:00.122Z,99943.44
2017-12-26T12:33:28.445Z,99941.30
2017-12-26T12:35:56.768Z,99960.25
2017-12-26T12:38:25.065Z,99954.25
2017-12-26T12:40:53.383Z,99957.23
2017-12-26T12:43:22.444Z,99965.09
2017-12-26T12:45:50.740Z,99942.22
2017-12-26T12:48:19.039Z,99950.35
2017-12-26T12:50:48.853Z,99946.88
2017-12-26T12:53:17.146Z,99949.95
2017-12-26T12:55:45.432Z,99955.78
2017-12-26T12:58:14.497Z,99951.99
2017-12-26T13:00:42.790Z,99968.77
2017-12-26T13:03:11.084Z,99958.03
2017-12-26T13:05:39.396Z,99949.27
2017-12-26T13:08:08.468Z,99944.36
2017-12-26T13:10:36.768Z,99933.27
2017-12-26T13:13:05.139Z,99933.56
2017-12-26T13:15:33.440Z,99917.66
2017-12-26T13:18:02.514Z,99921.55
2017-12-26T13:20:30.837Z,99934.49
2017-12-26T13:22:59.894Z,99919.09
2017-12-26T13:25:28.194Z,99940.98
2017-12-26T13:27:57.269Z,99930.00
2017-12-26T13:30:25.582Z,99922.37
2017-12-26T13:32:54.648Z,99925.64
2017-12-26T13:35:22.943Z,99927.37
2017-12-26T13:37:51.245Z,99929.16
2017-12-26T13:40:20.332Z,99924.41
2017-12-26T13:42:48.650Z,99932.77
2017-12-26T13:45:16.946Z,99924.45
2017-12-26T13:47:45.266Z,99915.34
2017-12-26T13:50:13.602Z,99916.09
2017-12-26T13:52:42.635Z,99908.45
2017-12-26T13:55:10.936Z,99898.38
2017-12-26T13:57:39.688Z,99919.20
2017-12-26T14:00:07.972Z,99915.11
2017-12-26T14:02:36.266Z,99905.91
2017-12-26T14:05:04.567Z,99909.63
2017-12-26T14:07:32.896Z,99923.08
2017-12-26T14:10:01.225Z,99933.30
2017-12-26T14:12:29.532Z,99919.94
2017-12-26T14:14:58.602Z,99915.85
2017-12-26T14:17:26.888Z,99917.28
2017-12-26T14:19:55.180Z,99925.97
2017-12-26T14:22:24.306Z,99918.92
2017-12-26T14:24:52.600Z,99916.19
2017-12-26T14:27:20.951Z,99916.09
2017-12-26T14:29:50.046Z,99921.30
2017-12-26T14:32:19.132Z,99927.33
2017-12-26T14:34:47.455Z,99925.08
2017-12-26T14:37:15.782Z,99920.71
2017-12-26T14:39:44.847Z,99912.94
2017-12-26T14:42:13.141Z,99916.31
2017-12-26T14:44:41.448Z,99910.80
2017-12-26T14:47:09.755Z,99909.75
2017-12-26T14:49:38.066Z,99903.81
2017-12-26T14:52:06.363Z,99909.06
2017-12-26T14:54:34.659Z,99903.95
2017-12-26T14:57:02.956Z,99909.77
2017-12-26T14:59:31.260Z,99911.81
2017-12-26T15:02:00.388Z,99910.18
2017-12-26T15:04:28.677Z,99909.97
2017-12-26T15:06:56.981Z,99909.97
2017-12-26T15:09:25.284Z,99916.42
2017-12-26T15:11:53.590Z,99918.97
2017-12-26T15:14:22.654Z,99919.48
2017-12-26T15:16:50.972Z,99913.55
2017-12-26T15:19:20.036Z,99919.58
2017-12-26T15:21:48.327Z,99913.47
2017-12-26T15:24:16.656Z,99912.83
2017-12-26T15:26:44.958Z,99911.92
2017-12-26T15:29:14.040Z,99917.45
2017-12-26T15:31:42.339Z,99915.09
2017-12-26T15:34:10.679Z,99905.87
2017-12-26T15:36:39.738Z,99901.38
2017-12-26T15:39:08.082Z,99909.52
2017-12-26T15:41:36.392Z,99904.41
2017-12-26T15:44:04.722Z,99907.98
2017-12-26T15:46:33.825Z,99909.39
2017-12-26T15:49:02.928Z,99898.75
2017-12-26T15:51:31.981Z,99904.88
2017-12-26T15:54:00.288Z,99910.04
2017-12-26T15:56:29.380Z,99913.52
2017-12-26T15:58:57.671Z,99905.95
2017-12-26T16:01:26.112Z,99907.77
2017-12-26T16:03:54.407Z,99910.85
2017-12-26T16:06:22.710Z,99909.55
2017-12-26T16:08:51.002Z,99907.39
2017-12-26T16:11:20.092Z,99909.95
2017-12-26T16:13:49.193Z,99915.36
2017-12-26T16:16:18.290Z,99913.92
2017-12-26T16:18:46.667Z,99909.65
2017-12-26T16:21:14.966Z,99902.41
2017-12-26T16:23:44.026Z,99901.37
2017-12-26T16:26:12.335Z,99895.88
2017-12-26T16:28:40.645Z,99902.80
2017-12-26T16:31:08.958Z,99892.27
2017-12-26T16:33:37.271Z,99886.23
2017-12-26T16:36:05.574Z,99890.62
2017-12-26T16:38:33.869Z,99877.94
2017-12-26T16:41:02.184Z,99878.02
2017-12-26T16:43:30.470Z,99874.13
2017-12-26T16:45:58.758Z,99868.20
2017-12-26T16:48:27.060Z,99875.72
2017-12-26T16:50:55.351Z,99877.63
2017-12-26T16:53:24.442Z,99871.30
2017-12-26T16:55:52.768Z,99876.79
2017-12-26T16:58:21.056Z,99864.75
2017-12-26T17:00:50.136Z,99869.95
2017-12-26T17:03:19.211Z,99858.20
2017-12-26T17:05:47.519Z,99858.30
2017-12-26T17:08:15.809Z,99849.89
2017-12-26T17:10:44.104Z,99850.38
2017-12-26T17:13:12.408Z,99864.34
2017-12-26T17:15:40.715Z,99865.36
2017-12-26T17:18:09.006Z,99861.48
2017-12-26T17:20:38.093Z,99857.19
2017-12-26T17:23:06.390Z,99850.45
2017-12-26T17:25:35.472Z,99852.69
2017-12-26T17:28:03.764Z,99852.88
2017-12-26T17:30:32.070Z,99850.45
2017-12-26T17:33:00.376Z,99848.13
2017-12-26T17:35:28.670Z,99850.77
2017-12-26T17:37:57.000Z,99841.84
2017-12-26T17:40:26.064Z,99836.97
2017-12-26T17:42:54.379Z,99837.28
2017-12-26T17:45:23.444Z,99831.45
2017-12-26T17:47:51.759Z,99827.98
2017-12-26T17:50:20.857Z,99823.37
2017-12-26T17:52:49.913Z,99828.57
2017-12-26T17:55:18.208Z,99824.42
2017-12-26T17:57:46.503Z,99815.47
2017-12-26T18:00:14.800Z,99819.57
2017-12-26T18:02:43.866Z,99819.70
2017-12-26T18:05:12.166Z,99805.84
2017-12-26T18:07:40.485Z,99805.73
2017-12-26T18:10:08.777Z,99809.30
2017-12-26T18:12:37.099Z,99802.67
2017-12-26T18:15:05.429Z,99805.42
2017-12-26T18:17:33.793Z,99804.00
2017-12-26T18:20:02.108Z,99795.23
2017-12-26T18:22:30.397Z,99794.22
2017-12-26T18:24:59.521Z,99791.25
2017-12-26T18:27:27.812Z,99789.52
2017-12-26T18:29:56.111Z,99786.27
2017-12-26T18:32:25.190Z,99790.55
2017-12-26T18:34:54.237Z,99782.80
2017-12-26T18:37:22.529Z,99767.80
2017-12-26T18:39:50.817Z,99773.83
2017-12-26T18:42:19.140Z,99773.83
2017-12-26T18:44:47.454Z,99768.02
2017-12-26T18:47:15.732Z,99766.69
2017-12-26T18:49:44.773Z,99748.14
2017-12-26T18:52:13.062Z,99750.58
2017-12-26T18:54:41.347Z,99750.98
2017-12-26T18:57:09.647Z,99741.20
2017-12-26T18:59:37.959Z,99741.61
2017-12-26T19:02:06.247Z,99736.64
2017-12-26T19:04:34.551Z,99724.50
2017-12-26T19:07:02.851Z,99724.19
2017-12-26T19:09:31.157Z,99712.25
2017-12-26T19:11:59.507Z,99707.55
2017-12-26T19:14:27.822Z,99706.74
2017-12-26T19:16:56.875Z,99708.95
2017-12-26T19:19:25.169Z,99703.23
2017-12-26T19:21:53.493Z,99698.36
2017-12-26T19:24:22.571Z,99693.27
2017-12-26T19:26:50.855Z,99696.42
2017-12-26T19:29:19.153Z,99682.74
2017-12-26T19:31:48.219Z,99683.66
2017-12-26T19:34:16.511Z,99684.03
2017-12-26T19:36:44.827Z,99687.29
2017-12-26T19:39:13.179Z,99684.41
2017-12-26T19:41:41.490Z,99675.34
2017-12-26T19:44:09.777Z,99680.10
2017-12-26T19:46:38.079Z,99684.99
2017-12-26T19:49:06.380Z,99674.61
2017-12-26T19:51:34.690Z,99670.55
2017-12-26T19:54:03.065Z,99668.42
2017-12-26T19:56:31.365Z,99669.55
2017-12-26T19:59:00.438Z,99666.61
2017-12-26T20:01:28.735Z,99662.95
2017-12-26T20:03:57.814Z,99655.70
2017-12-26T20:06:26.093Z,99644.59
2017-12-26T20:08:54.445Z,99644.57
2017-12-26T20:11:22.755Z,99631.85
2017-12-26T20:13:51.074Z,99626.13
2017-12-26T20:16:20.139Z,99612.87
2017-12-26T20:18:48.440Z,99619.28
2017-12-26T20:21:17.600Z,99614.81
2017-12-26T20:23:45.935Z,99606.98
2017-12-26T20:26:15.050Z,99602.53
2017-12-26T20:28:48.877Z,99595.28
2017-12-26T20:31:17.183Z,99592.34
2017-12-26T20:33:45.498Z,99586.14
2017-12-26T20:36:14.672Z,99581.77
2017-12-26T20:38:42.966Z,99562.72
2017-12-26T20:41:11.257Z,99571.28
2017-12-26T20:43:40.318Z,99559.75
2017-12-26T20:46:08.637Z,99559.95
2017-12-26T20:48:38.345Z,99561.91
2017-12-26T20:51:07.415Z,99551.92
2017-12-26T20:53:35.728Z,99549.58
2017-12-26T20:56:04.813Z,99551.52
2017-12-26T20:58:33.881Z,99547.02
2017-12-26T21:01:02.366Z,99546.72
2017-12-26T21:03:30.670Z,99542.23
2017-12-26T21:05:58.955Z,99534.06
2017-12-26T21:08:27.265Z,99525.31
2017-12-26T21:10:56.326Z,99533.44
2017-12-26T21:13:25.385Z,99529.16
2017-12-26T21:15:53.669Z,99519.91
2017-12-26T21:18:21.973Z,99512.68
2017-12-26T21:20:50.268Z,99511.16
2017-12-26T21:23:18.588Z,99504.75
2017-12-26T21:25:47.647Z,99491.83
2017-12-26T21:28:15.949Z,99485.80
2017-12-26T21:30:44.308Z,99484.48
2017-12-26T21:33:12.595Z,99488.36
2017-12-26T21:35:40.901Z,99480.83
2017-12-26T21:38:09.225Z,99471.84
2017-12-26T21:40:37.514Z,99469.72
2017-12-26T21:43:06.597Z,99462.39
2017-12-26T21:45:34.891Z,99454.86
2017-12-26T21:48:03.220Z,99442.60
2017-12-26T21:50:31.559Z,99434.97
2017-12-26T21:52:59.885Z,99428.65
2017-12-26T21:55:28.183Z,99424.68
2017-12-26T21:57:57.233Z,99428.34
2017-12-26T22:00:25.527Z,99417.34
2017-12-26T22:02:53.821Z,99416.94
2017-12-26T22:05:22.125Z,99403.90
2017-12-26T22:07:51.187Z,99399.02
2017-12-26T22:10:19.483Z,99392.59
2017-12-26T22:12:47.774Z,99386.66
2017-12-26T22:15:16.101Z,99381.36
2017-12-26T22:17:44.395Z,99375.34
2017-12-26T22:20:12.700Z,99371.27
2017-12-26T22:22:41.014Z,99367.30
2017-12-26T22:25:10.073Z,99356.39
2017-12-26T22:27:38.515Z,99353.64
2017-12-26T22:30:06.809Z,99347.63
2017-12-26T22:32:35.099Z,99345.19
2017-12-26T22:35:03.384Z,99338.87
2017-12-26T22:37:31.704Z,99336.01
2017-12-26T22:39:59.992Z,99332.55
2017-12-26T22:42:28.288Z,99327.05
2017-12-26T22:44:57.335Z,99327.66
2017-12-26T22:47:25.628Z,99322.45
2017-12-26T22:49:53.947Z,99313.89
2017-12-26T22:52:23.009Z,99305.81
2017-12-26T22:54:51.280Z,99294.02
2017-12-26T22:57:19.593Z,99281.70
2017-12-26T22:59:47.888Z,99275.48
2017-12-26T23:02:16.998Z,99263.25
2017-12-26T23:04:45.290Z,99262.95
2017-12-26T23:07:13.593Z,99252.05
2017-12-26T23:09:41.916Z,99241.05
2017-12-26T23:12:10.204Z,99235.23
2017-12-26T23:14:43.946Z,99220.27
2017-12-26T23:17:17.772Z,99208.64
2017-12-26T23:19:51.460Z,99210.67
2017-12-26T23:22:19.778Z,99198.24
2017-12-26T23:24:53.474Z,99197.59
2017-12-26T23:27:27.189Z,99186.88
2017-12-26T23:33:08.810Z,99174.62
2017-12-26T23:35:42.683Z,99155.77
2017-12-26T23:38:17.220Z,99149.30
2017-12-26T23:44:03.938Z,99145.01
2017-12-26T23:46:37.810Z,99134.09
2017-12-26T23:49:11.638Z,99122.16
2017-12-26T23:51:45.474Z,99112.38
2017-12-26T23:54:20.060Z,99102.80
2017-12-26T23:56:53.843Z,99089.45
